Rolldock Sun — PBMG — position and weather

sailwx.info

Track history (hours):
 
Tides and Currents Weather Stations Pressure Air Temp Water Temp Dewpoint Dewpoint Depression Visibility Wind Speed Wind Dir Waves Ship Positions

Rolldock Sun

Last reported at 2017-Dec-16 19:33 UTC. Time now 2017-Dec-17 00:40 UTC.
Position N 58°42' W 003°43'.

Length 139 m; draft 5.2 m.

Type: Ship. MMSI: 244615929.

Date/timePositionNaut miles runAvg speedWind from/ knotsBaromVisibWave heightAir tempDewpointWater temp
2017-Dec-16 19:33N 58°42' W 003°43'4915.6
2017-Dec-16 16:25N 58°30' W 005°14'16114.9
2017-Dec-16 05:36N 56°01' W 007°07'314.5
2017-Dec-16 05:25N 55°59' W 007°04'614.4
2017-Dec-16 05:00N 55°55' W 006°57'714.3
2017-Dec-16 04:30N 55°49' W 006°49'714.2
2017-Dec-16 04:00N 55°43' W 006°41'714.1
2017-Dec-16 03:30N 55°38' W 006°34'815.2
2017-Dec-16 03:00N 55°32' W 006°25'816.2
2017-Dec-16 02:30N 55°26' W 006°15'816.3
2017-Dec-16 02:00N 55°23' W 006°02'918.7
2017-Dec-16 01:30N 55°15' W 005°52'918.1
2017-Dec-16 01:00N 55°07' W 005°46'1117.1
2017-Dec-16 00:23N 54°57' W 005°38'616.5
2017-Dec-16 00:00N 54°51' W 005°37'815.2
2017-Dec-15 23:30N 54°44' W 005°40'713.4
2017-Dec-15 23:01N 54°40' W 005°50'3 5.9
2017-Dec-15 22:27N 54°38' W 005°53'0 0.0
2017-Dec-15 19:24N 54°38' W 005°53'0 0.0
2017-Dec-15 09:44N 54°38' W 005°53'0 0.0
2017-Dec-15 05:14N 54°38' W 005°53'0 0.0
2017-Dec-15 04:50N 54°38' W 005°53'0 0.0
2017-Dec-14 14:08N 54°38' W 005°53'0 0.0
2017-Dec-14 14:00N 54°38' W 005°53'0 0.0
2017-Dec-14 11:44N 54°38' W 005°53'0 0.0
2017-Dec-14 11:23N 54°38' W 005°53'0 0.0
2017-Dec-14 08:35N 54°38' W 005°53'0 0.0
2017-Dec-14 07:09N 54°38' W 005°53'0 0.0
2017-Dec-14 06:47N 54°38' W 005°53'0 0.0
2017-Dec-14 06:17N 54°38' W 005°53'0 0.0
2017-Dec-14 05:59N 54°38' W 005°53'0 0.0
2017-Dec-14 05:18N 54°38' W 005°53'0 0.0
2017-Dec-14 04:53N 54°38' W 005°53'0 0.0
2017-Dec-14 00:54N 54°38' W 005°53'0 0.0
2017-Dec-14 00:27N 54°38' W 005°53'0 0.0
2017-Dec-13 14:17N 54°38' W 005°53'0 0.0
2017-Dec-13 07:44N 54°38' W 005°53'0 0.0
2017-Dec-13 07:18N 54°38' W 005°53'0 0.0
2017-Dec-13 06:53N 54°38' W 005°53'0 0.0
2017-Dec-13 06:23N 54°38' W 005°53'0 0.0
2017-Dec-13 06:00N 54°38' W 005°53'0 0.0
2017-Dec-13 05:18N 54°38' W 005°53'0 0.0
2017-Dec-13 04:59N 54°38' W 005°53'0 0.0
2017-Dec-13 04:14N 54°38' W 005°53'0 0.0
2017-Dec-13 03:51N 54°38' W 005°53'0 0.0
2017-Dec-13 03:23N 54°38' W 005°53'0 0.0
2017-Dec-13 02:32N 54°38' W 005°53'0 0.0
2017-Dec-13 02:20N 54°38' W 005°53'0 0.0
2017-Dec-12 23:15N 54°38' W 005°53'0 0.0
2017-Dec-12 22:11N 54°38' W 005°53'0 0.0
2017-Dec-12 21:44N 54°38' W 005°53'0 0.0
2017-Dec-12 21:20N 54°38' W 005°53'0 0.0
2017-Dec-12 20:44N 54°38' W 005°53'0 0.0
2017-Dec-12 20:27N 54°38' W 005°53'1 1.2
2017-Dec-12 20:00N 54°38' W 005°53'3 6.3
2017-Dec-12 19:30N 54°41' W 005°49'510.4
2017-Dec-12 19:01N 54°43' W 005°42'612.5
2017-Dec-12 18:31N 54°49' W 005°37'1015.0
2017-Dec-12 17:52N 54°58' W 005°42'1015.5
2017-Dec-12 17:13N 55°07' W 005°51'315.9
2017-Dec-12 17:01N 55°09' W 005°54'816.6
2017-Dec-12 16:30N 55°16' W 006°02'815.6
2017-Dec-12 16:00N 55°22' W 006°12'714.9
2017-Dec-12 15:30N 55°27' W 006°22'815.2
2017-Dec-12 15:00N 55°33' W 006°30'814.9
2017-Dec-12 14:30N 55°39' W 006°38'714.6
2017-Dec-12 14:00N 55°45' W 006°45'713.9
2017-Dec-12 13:30N 55°51' W 006°52'16412.5
2017-Dec-12 00:20N 58°27' W 005°22'514.2
2017-Dec-12 00:00N 58°31' W 005°16'2713.1
2017-Dec-11 21:58N 58°41' W 004°29'613.9
2017-Dec-11 21:30N 58°41' W 004°16'612.4
2017-Dec-11 21:00N 58°41' W 004°04'612.8
2017-Dec-11 20:30N 58°42' W 003°52'612.7
2017-Dec-11 20:00N 58°42' W 003°40'813.0
2017-Dec-11 19:26N 58°43' W 003°25'713.1
2017-Dec-11 18:56N 58°43' W 003°13'511.4
2017-Dec-11 18:30N 58°42' W 003°04'510.8
2017-Dec-11 18:00N 58°39' W 002°55'611.8
2017-Dec-11 17:30N 58°36' W 002°45'36113.0
2017-Dec-10 13:48N 55°42' E 006°56'412.7
2017-Dec-10 13:30N 55°40' E 007°02'612.6
2017-Dec-10 13:00N 55°37' E 007°12'612.8
2017-Dec-10 12:30N 55°34' E 007°22'612.9
2017-Dec-10 12:00N 55°31' E 007°32'613.1
2017-Dec-10 11:30N 55°28' E 007°42'713.1
2017-Dec-10 11:00N 55°25' E 007°53'713.7
2017-Dec-10 10:31N 55°25' E 008°05'510.4
2017-Dec-10 10:00N 55°26' E 008°14'611.3
2017-Dec-10 09:30N 55°29' E 008°22'3 6.2
2017-Dec-10 09:00N 55°27' E 008°27'0 0.0
2017-Dec-10 08:30N 55°27' E 008°27'0 0.0
2017-Dec-10 08:00N 55°27' E 008°27'0 0.0
2017-Dec-10 07:30N 55°27' E 008°27'0 0.0
2017-Dec-10 07:00N 55°27' E 008°27'0 0.0
2017-Dec-10 06:30N 55°27' E 008°27'0 0.0
2017-Dec-10 06:00N 55°27' E 008°27'0 0.0
2017-Dec-10 05:30N 55°27' E 008°27'0 0.0
2017-Dec-10 05:00N 55°27' E 008°27'0 0.0
2017-Dec-10 04:30N 55°27' E 008°27'0 0.0
2017-Dec-10 04:00N 55°27' E 008°27'0 0.0
2017-Dec-10 03:30N 55°27' E 008°27'0 0.0
2017-Dec-10 03:00N 55°27' E 008°27'0 0.0
2017-Dec-10 02:30N 55°27' E 008°27'0 0.0
2017-Dec-10 02:00N 55°27' E 008°27'0 0.0
2017-Dec-10 01:30N 55°27' E 008°27'0 0.0
2017-Dec-10 01:00N 55°27' E 008°27'0 0.0
2017-Dec-10 00:30N 55°27' E 008°27'0 0.0
2017-Dec-10 00:00N 55°27' E 008°27'0 0.0
2017-Dec-09 23:30N 55°27' E 008°27'0 0.0
2017-Dec-09 23:00N 55°27' E 008°27'0 0.0
2017-Dec-09 22:30N 55°27' E 008°27'0 0.0
2017-Dec-09 22:00N 55°27' E 008°27'0 0.0
2017-Dec-09 21:30N 55°27' E 008°27'0 0.0
2017-Dec-09 21:00N 55°27' E 008°27'0 0.0
2017-Dec-09 20:30N 55°27' E 008°27'0 0.0
2017-Dec-09 20:00N 55°27' E 008°27'0 0.0
2017-Dec-09 19:30N 55°27' E 008°27'0 0.0
2017-Dec-09 19:00N 55°27' E 008°27'0 0.0
2017-Dec-09 18:30N 55°27' E 008°27'0 0.0
2017-Dec-09 18:00N 55°27' E 008°27'0 0.0
2017-Dec-09 17:30N 55°27' E 008°27'0 0.0
2017-Dec-09 17:00N 55°27' E 008°27'0 0.0
2017-Dec-09 16:30N 55°27' E 008°27'0 0.0
2017-Dec-09 16:00N 55°27' E 008°27'0 0.0
2017-Dec-09 15:30N 55°27' E 008°27'0 0.0
2017-Dec-09 15:00N 55°27' E 008°27'0 0.0
2017-Dec-09 14:30N 55°27' E 008°27'0 0.0
2017-Dec-09 14:00N 55°27' E 008°27'0 0.0
2017-Dec-09 13:30N 55°27' E 008°27'0 0.0
2017-Dec-09 13:00N 55°27' E 008°27'0 0.0
2017-Dec-09 12:30N 55°27' E 008°27'0 0.0
2017-Dec-09 12:00N 55°27' E 008°27'0 0.0
2017-Dec-09 11:30N 55°27' E 008°27'0 0.0
2017-Dec-09 11:00N 55°27' E 008°27'0 0.0
2017-Dec-09 10:30N 55°27' E 008°27'0 0.0
2017-Dec-09 10:00N 55°27' E 008°27'0 0.0
2017-Dec-09 09:30N 55°27' E 008°27'0 0.0
2017-Dec-09 09:00N 55°27' E 008°27'0 0.0
2017-Dec-09 08:30N 55°27' E 008°27'0 0.0
2017-Dec-09 08:00N 55°27' E 008°27'0 0.0
2017-Dec-09 07:30N 55°27' E 008°27'0 0.0
2017-Dec-09 07:00N 55°27' E 008°27'0 0.0
2017-Dec-09 06:30N 55°27' E 008°27'0 0.0
2017-Dec-09 06:00N 55°27' E 008°27'0 0.0
2017-Dec-09 05:30N 55°27' E 008°27'0 0.0
2017-Dec-09 05:00N 55°27' E 008°27'0 0.0
2017-Dec-09 04:30N 55°27' E 008°27'0 0.0
2017-Dec-09 04:00N 55°27' E 008°27'0 0.0
2017-Dec-09 03:30N 55°27' E 008°27'0 0.0
2017-Dec-09 03:00N 55°27' E 008°27'0 0.0
2017-Dec-09 02:30N 55°27' E 008°27'0 0.0
2017-Dec-09 02:00N 55°27' E 008°27'0 0.0
2017-Dec-09 01:30N 55°27' E 008°27'0 0.0
2017-Dec-09 01:00N 55°27' E 008°27'0 0.0
2017-Dec-09 00:30N 55°27' E 008°27'0 0.0
2017-Dec-09 00:00N 55°27' E 008°27'0 0.0
2017-Dec-08 23:30N 55°27' E 008°27'0 0.0
2017-Dec-08 23:00N 55°27' E 008°27'0 0.0
2017-Dec-08 22:30N 55°27' E 008°27'0 0.0
2017-Dec-08 22:00N 55°27' E 008°27'0 0.0
2017-Dec-08 21:30N 55°27' E 008°27'0 0.0
2017-Dec-08 21:00N 55°27' E 008°27'0 0.0
2017-Dec-08 20:30N 55°27' E 008°27'0 0.0
2017-Dec-08 20:00N 55°27' E 008°27'0 0.0
2017-Dec-08 19:30N 55°27' E 008°27'0 0.0
2017-Dec-08 19:00N 55°27' E 008°27'0 0.0
2017-Dec-08 18:30N 55°27' E 008°27'0 0.0
2017-Dec-08 18:00N 55°27' E 008°27'0 0.0
2017-Dec-08 17:30N 55°27' E 008°27'0 0.0
2017-Dec-08 17:00N 55°27' E 008°27'0 0.0
2017-Dec-08 16:30N 55°27' E 008°27'0 0.0
2017-Dec-08 16:00N 55°27' E 008°27'0 0.0
2017-Dec-08 15:30N 55°27' E 008°27'0 0.0
2017-Dec-08 15:00N 55°27' E 008°27'0 0.0
2017-Dec-08 14:30N 55°27' E 008°27'0 0.0
2017-Dec-08 14:00N 55°27' E 008°27'0 0.0
2017-Dec-08 13:30N 55°27' E 008°27'0 0.0
2017-Dec-08 13:00N 55°27' E 008°27'0 0.0
2017-Dec-08 12:30N 55°27' E 008°27'0 0.0
2017-Dec-08 12:00N 55°27' E 008°27'0 0.0
2017-Dec-08 11:30N 55°27' E 008°27'0 0.0
2017-Dec-08 11:00N 55°27' E 008°27'0 0.0
2017-Dec-08 10:30N 55°27' E 008°27'0 0.0
2017-Dec-08 10:00N 55°27' E 008°27'0 0.0
2017-Dec-08 09:30N 55°27' E 008°27'0 0.0
2017-Dec-08 09:00N 55°27' E 008°27'0 0.0
2017-Dec-08 08:30N 55°27' E 008°27'0 0.0
2017-Dec-08 08:00N 55°27' E 008°27'0 0.0
2017-Dec-08 07:30N 55°27' E 008°27'0 0.0
2017-Dec-08 07:00N 55°27' E 008°27'0 0.6
2017-Dec-08 06:30N 55°27' E 008°26'1 2.2
2017-Dec-08 06:00N 55°28' E 008°25'3 6.6
2017-Dec-08 05:30N 55°28' E 008°19'510.6
2017-Dec-08 05:00N 55°24' E 008°12'4 8.7
2017-Dec-08 04:31N 55°22' E 008°06'5 9.5
2017-Dec-08 04:00N 55°19' E 007°59'510.6
2017-Dec-08 03:30N 55°16' E 007°52'612.0
2017-Dec-08 03:00N 55°12' E 007°43'612.1
2017-Dec-08 02:30N 55°08' E 007°35'612.2
2017-Dec-08 02:00N 55°05' E 007°26'612.1
2017-Dec-08 01:30N 55°01' E 007°18'612.1
2017-Dec-08 01:00N 54°57' E 007°10'612.2
2017-Dec-08 00:30N 54°54' E 007°01'712.3
2017-Dec-07 23:59N 54°50' E 006°52'612.3
2017-Dec-07 23:29N 54°47' E 006°43'10012.2
2017-Dec-07 15:21N 53°33' E 004°48'3213.9
2017-Dec-07 13:03N 53°04' E 004°25'114.5
2017-Dec-07 13:00N 53°04' E 004°24'714.0
2017-Dec-07 12:30N 52°58' E 004°19'713.9
2017-Dec-07 12:01N 52°51' E 004°15'714.3
2017-Dec-07 11:30N 52°45' E 004°09'714.3
2017-Dec-07 11:00N 52°39' E 004°03'714.3
2017-Dec-07 10:30N 52°32' E 003°58'611.5
2017-Dec-07 10:00N 52°27' E 003°54'714.1
2017-Dec-07 09:30N 52°20' E 003°52'714.1
2017-Dec-07 09:00N 52°13' E 003°53'714.4
2017-Dec-07 08:30N 52°06' E 003°54'4 8.2
2017-Dec-07 08:00N 52°02' E 003°56'815.4
2017-Dec-07 07:30N 51°58' E 004°07'713.4
2017-Dec-07 07:01N 51°54' E 004°16'5 9.9
2017-Dec-07 06:30N 51°54' E 004°24'2 3.3
2017-Dec-07 05:58N 51°54' E 004°27'0 0.0
2017-Dec-07 05:28N 51°54' E 004°27'0 0.7
2017-Dec-07 04:58N 51°54' E 004°27'0 0.0
2017-Dec-07 04:28N 51°54' E 004°27'0 0.0
2017-Dec-07 03:58N 51°54' E 004°27'0 0.0
2017-Dec-07 03:28N 51°54' E 004°27'0 0.0
2017-Dec-07 03:00N 51°54' E 004°27'0 0.0
2017-Dec-07 02:30N 51°54' E 004°27'0 0.0
2017-Dec-07 02:00N 51°54' E 004°27'0 0.0
2017-Dec-07 01:30N 51°54' E 004°27'0 0.0
2017-Dec-07 01:00N 51°54' E 004°27'0 0.0
2017-Dec-07 00:30N 51°54' E 004°27'0 0.0
2017-Dec-07 00:00N 51°54' E 004°27'0 0.0
2017-Dec-06 23:30N 51°54' E 004°27'0 0.0
2017-Dec-06 23:00N 51°54' E 004°27'0 0.0
2017-Dec-06 22:30N 51°54' E 004°27'0 0.0
2017-Dec-06 22:00N 51°54' E 004°27'0 0.0
2017-Dec-06 21:30N 51°54' E 004°27'0 0.0
2017-Dec-06 21:00N 51°54' E 004°27'  
Track history (hours):
 
Tides and Currents Weather Stations Pressure Air Temp Water Temp Dewpoint Dewpoint Depression Visibility Wind Speed Wind Dir Waves Ship Positions

Rolldock Sun

Last reported at 2017-Dec-16 19:33 UTC. Time now 2017-Dec-17 00:40 UTC.
Position N 58°42' W 003°43'.

Length 139 m; draft 5.2 m.

Type: Ship. MMSI: 244615929.

Date/timePositionNaut miles runAvg speedWind from/ knotsBaromVisibWave heightAir tempDewpointWater temp
2017-Dec-16 19:33N 58°42' W 003°43'4915.6
2017-Dec-16 16:25N 58°30' W 005°14'16114.9
2017-Dec-16 05:36N 56°01' W 007°07'314.5
2017-Dec-16 05:25N 55°59' W 007°04'614.4
2017-Dec-16 05:00N 55°55' W 006°57'714.3
2017-Dec-16 04:30N 55°49' W 006°49'714.2
2017-Dec-16 04:00N 55°43' W 006°41'714.1
2017-Dec-16 03:30N 55°38' W 006°34'815.2
2017-Dec-16 03:00N 55°32' W 006°25'816.2
2017-Dec-16 02:30N 55°26' W 006°15'816.3
2017-Dec-16 02:00N 55°23' W 006°02'918.7
2017-Dec-16 01:30N 55°15' W 005°52'918.1
2017-Dec-16 01:00N 55°07' W 005°46'1117.1
2017-Dec-16 00:23N 54°57' W 005°38'616.5
2017-Dec-16 00:00N 54°51' W 005°37'815.2
2017-Dec-15 23:30N 54°44' W 005°40'713.4
2017-Dec-15 23:01N 54°40' W 005°50'3 5.9
2017-Dec-15 22:27N 54°38' W 005°53'0 0.0
2017-Dec-15 19:24N 54°38' W 005°53'0 0.0
2017-Dec-15 09:44N 54°38' W 005°53'0 0.0
2017-Dec-15 05:14N 54°38' W 005°53'0 0.0
2017-Dec-15 04:50N 54°38' W 005°53'0 0.0
2017-Dec-14 14:08N 54°38' W 005°53'0 0.0
2017-Dec-14 14:00N 54°38' W 005°53'0 0.0
2017-Dec-14 11:44N 54°38' W 005°53'0 0.0
2017-Dec-14 11:23N 54°38' W 005°53'0 0.0
2017-Dec-14 08:35N 54°38' W 005°53'0 0.0
2017-Dec-14 07:09N 54°38' W 005°53'0 0.0
2017-Dec-14 06:47N 54°38' W 005°53'0 0.0
2017-Dec-14 06:17N 54°38' W 005°53'0 0.0
2017-Dec-14 05:59N 54°38' W 005°53'0 0.0
2017-Dec-14 05:18N 54°38' W 005°53'0 0.0
2017-Dec-14 04:53N 54°38' W 005°53'0 0.0
2017-Dec-14 00:54N 54°38' W 005°53'0 0.0
2017-Dec-14 00:27N 54°38' W 005°53'0 0.0
2017-Dec-13 14:17N 54°38' W 005°53'0 0.0
2017-Dec-13 07:44N 54°38' W 005°53'0 0.0
2017-Dec-13 07:18N 54°38' W 005°53'0 0.0
2017-Dec-13 06:53N 54°38' W 005°53'0 0.0
2017-Dec-13 06:23N 54°38' W 005°53'0 0.0
2017-Dec-13 06:00N 54°38' W 005°53'0 0.0
2017-Dec-13 05:18N 54°38' W 005°53'0 0.0
2017-Dec-13 04:59N 54°38' W 005°53'0 0.0
2017-Dec-13 04:14N 54°38' W 005°53'0 0.0
2017-Dec-13 03:51N 54°38' W 005°53'0 0.0
2017-Dec-13 03:23N 54°38' W 005°53'0 0.0
2017-Dec-13 02:32N 54°38' W 005°53'0 0.0
2017-Dec-13 02:20N 54°38' W 005°53'0 0.0
2017-Dec-12 23:15N 54°38' W 005°53'0 0.0
2017-Dec-12 22:11N 54°38' W 005°53'0 0.0
2017-Dec-12 21:44N 54°38' W 005°53'0 0.0
2017-Dec-12 21:20N 54°38' W 005°53'0 0.0
2017-Dec-12 20:44N 54°38' W 005°53'0 0.0
2017-Dec-12 20:27N 54°38' W 005°53'1 1.2
2017-Dec-12 20:00N 54°38' W 005°53'3 6.3
2017-Dec-12 19:30N 54°41' W 005°49'510.4
2017-Dec-12 19:01N 54°43' W 005°42'612.5
2017-Dec-12 18:31N 54°49' W 005°37'1015.0
2017-Dec-12 17:52N 54°58' W 005°42'1015.5
2017-Dec-12 17:13N 55°07' W 005°51'315.9
2017-Dec-12 17:01N 55°09' W 005°54'816.6
2017-Dec-12 16:30N 55°16' W 006°02'815.6
2017-Dec-12 16:00N 55°22' W 006°12'714.9
2017-Dec-12 15:30N 55°27' W 006°22'815.2
2017-Dec-12 15:00N 55°33' W 006°30'814.9
2017-Dec-12 14:30N 55°39' W 006°38'714.6
2017-Dec-12 14:00N 55°45' W 006°45'713.9
2017-Dec-12 13:30N 55°51' W 006°52'16412.5
2017-Dec-12 00:20N 58°27' W 005°22'514.2
2017-Dec-12 00:00N 58°31' W 005°16'2713.1
2017-Dec-11 21:58N 58°41' W 004°29'613.9
2017-Dec-11 21:30N 58°41' W 004°16'612.4
2017-Dec-11 21:00N 58°41' W 004°04'612.8
2017-Dec-11 20:30N 58°42' W 003°52'612.7
2017-Dec-11 20:00N 58°42' W 003°40'813.0
2017-Dec-11 19:26N 58°43' W 003°25'713.1
2017-Dec-11 18:56N 58°43' W 003°13'511.4
2017-Dec-11 18:30N 58°42' W 003°04'510.8
2017-Dec-11 18:00N 58°39' W 002°55'611.8
2017-Dec-11 17:30N 58°36' W 002°45'36113.0
2017-Dec-10 13:48N 55°42' E 006°56'412.7
2017-Dec-10 13:30N 55°40' E 007°02'612.6
2017-Dec-10 13:00N 55°37' E 007°12'612.8
2017-Dec-10 12:30N 55°34' E 007°22'612.9
2017-Dec-10 12:00N 55°31' E 007°32'613.1
2017-Dec-10 11:30N 55°28' E 007°42'713.1
2017-Dec-10 11:00N 55°25' E 007°53'713.7
2017-Dec-10 10:31N 55°25' E 008°05'510.4
2017-Dec-10 10:00N 55°26' E 008°14'611.3
2017-Dec-10 09:30N 55°29' E 008°22'3 6.2
2017-Dec-10 09:00N 55°27' E 008°27'0 0.0
2017-Dec-10 08:30N 55°27' E 008°27'0 0.0
2017-Dec-10 08:00N 55°27' E 008°27'0 0.0
2017-Dec-10 07:30N 55°27' E 008°27'0 0.0
2017-Dec-10 07:00N 55°27' E 008°27'0 0.0
2017-Dec-10 06:30N 55°27' E 008°27'0 0.0
2017-Dec-10 06:00N 55°27' E 008°27'0 0.0
2017-Dec-10 05:30N 55°27' E 008°27'0 0.0
2017-Dec-10 05:00N 55°27' E 008°27'0 0.0
2017-Dec-10 04:30N 55°27' E 008°27'0 0.0
2017-Dec-10 04:00N 55°27' E 008°27'0 0.0
2017-Dec-10 03:30N 55°27' E 008°27'0 0.0
2017-Dec-10 03:00N 55°27' E 008°27'0 0.0
2017-Dec-10 02:30N 55°27' E 008°27'0 0.0
2017-Dec-10 02:00N 55°27' E 008°27'0 0.0
2017-Dec-10 01:30N 55°27' E 008°27'0 0.0
2017-Dec-10 01:00N 55°27' E 008°27'0 0.0
2017-Dec-10 00:30N 55°27' E 008°27'0 0.0
2017-Dec-10 00:00N 55°27' E 008°27'0 0.0
2017-Dec-09 23:30N 55°27' E 008°27'0 0.0
2017-Dec-09 23:00N 55°27' E 008°27'0 0.0
2017-Dec-09 22:30N 55°27' E 008°27'0 0.0
2017-Dec-09 22:00N 55°27' E 008°27'0 0.0
2017-Dec-09 21:30N 55°27' E 008°27'0 0.0
2017-Dec-09 21:00N 55°27' E 008°27'0 0.0
2017-Dec-09 20:30N 55°27' E 008°27'0 0.0
2017-Dec-09 20:00N 55°27' E 008°27'0 0.0
2017-Dec-09 19:30N 55°27' E 008°27'0 0.0
2017-Dec-09 19:00N 55°27' E 008°27'0 0.0
2017-Dec-09 18:30N 55°27' E 008°27'0 0.0
2017-Dec-09 18:00N 55°27' E 008°27'0 0.0
2017-Dec-09 17:30N 55°27' E 008°27'0 0.0
2017-Dec-09 17:00N 55°27' E 008°27'0 0.0
2017-Dec-09 16:30N 55°27' E 008°27'0 0.0
2017-Dec-09 16:00N 55°27' E 008°27'0 0.0
2017-Dec-09 15:30N 55°27' E 008°27'0 0.0
2017-Dec-09 15:00N 55°27' E 008°27'0 0.0
2017-Dec-09 14:30N 55°27' E 008°27'0 0.0
2017-Dec-09 14:00N 55°27' E 008°27'0 0.0
2017-Dec-09 13:30N 55°27' E 008°27'0 0.0
2017-Dec-09 13:00N 55°27' E 008°27'0 0.0
2017-Dec-09 12:30N 55°27' E 008°27'0 0.0
2017-Dec-09 12:00N 55°27' E 008°27'0 0.0
2017-Dec-09 11:30N 55°27' E 008°27'0 0.0
2017-Dec-09 11:00N 55°27' E 008°27'0 0.0
2017-Dec-09 10:30N 55°27' E 008°27'0 0.0
2017-Dec-09 10:00N 55°27' E 008°27'0 0.0
2017-Dec-09 09:30N 55°27' E 008°27'0 0.0
2017-Dec-09 09:00N 55°27' E 008°27'0 0.0
2017-Dec-09 08:30N 55°27' E 008°27'0 0.0
2017-Dec-09 08:00N 55°27' E 008°27'0 0.0
2017-Dec-09 07:30N 55°27' E 008°27'0 0.0
2017-Dec-09 07:00N 55°27' E 008°27'0 0.0
2017-Dec-09 06:30N 55°27' E 008°27'0 0.0
2017-Dec-09 06:00N 55°27' E 008°27'0 0.0
2017-Dec-09 05:30N 55°27' E 008°27'0 0.0
2017-Dec-09 05:00N 55°27' E 008°27'0 0.0
2017-Dec-09 04:30N 55°27' E 008°27'0 0.0
2017-Dec-09 04:00N 55°27' E 008°27'0 0.0
2017-Dec-09 03:30N 55°27' E 008°27'0 0.0
2017-Dec-09 03:00N 55°27' E 008°27'0 0.0
2017-Dec-09 02:30N 55°27' E 008°27'0 0.0
2017-Dec-09 02:00N 55°27' E 008°27'0 0.0
2017-Dec-09 01:30N 55°27' E 008°27'0 0.0
2017-Dec-09 01:00N 55°27' E 008°27'0 0.0
2017-Dec-09 00:30N 55°27' E 008°27'0 0.0
2017-Dec-09 00:00N 55°27' E 008°27'0 0.0
2017-Dec-08 23:30N 55°27' E 008°27'0 0.0
2017-Dec-08 23:00N 55°27' E 008°27'0 0.0
2017-Dec-08 22:30N 55°27' E 008°27'0 0.0
2017-Dec-08 22:00N 55°27' E 008°27'0 0.0
2017-Dec-08 21:30N 55°27' E 008°27'0 0.0
2017-Dec-08 21:00N 55°27' E 008°27'0 0.0
2017-Dec-08 20:30N 55°27' E 008°27'0 0.0
2017-Dec-08 20:00N 55°27' E 008°27'0 0.0
2017-Dec-08 19:30N 55°27' E 008°27'0 0.0
2017-Dec-08 19:00N 55°27' E 008°27'0 0.0
2017-Dec-08 18:30N 55°27' E 008°27'0 0.0
2017-Dec-08 18:00N 55°27' E 008°27'0 0.0
2017-Dec-08 17:30N 55°27' E 008°27'0 0.0
2017-Dec-08 17:00N 55°27' E 008°27'0 0.0
2017-Dec-08 16:30N 55°27' E 008°27'0 0.0
2017-Dec-08 16:00N 55°27' E 008°27'0 0.0
2017-Dec-08 15:30N 55°27' E 008°27'0 0.0
2017-Dec-08 15:00N 55°27' E 008°27'0 0.0
2017-Dec-08 14:30N 55°27' E 008°27'0 0.0
2017-Dec-08 14:00N 55°27' E 008°27'0 0.0
2017-Dec-08 13:30N 55°27' E 008°27'0 0.0
2017-Dec-08 13:00N 55°27' E 008°27'0 0.0
2017-Dec-08 12:30N 55°27' E 008°27'0 0.0
2017-Dec-08 12:00N 55°27' E 008°27'0 0.0
2017-Dec-08 11:30N 55°27' E 008°27'0 0.0
2017-Dec-08 11:00N 55°27' E 008°27'0 0.0
2017-Dec-08 10:30N 55°27' E 008°27'0 0.0
2017-Dec-08 10:00N 55°27' E 008°27'0 0.0
2017-Dec-08 09:30N 55°27' E 008°27'0 0.0
2017-Dec-08 09:00N 55°27' E 008°27'0 0.0
2017-Dec-08 08:30N 55°27' E 008°27'0 0.0
2017-Dec-08 08:00N 55°27' E 008°27'0 0.0
2017-Dec-08 07:30N 55°27' E 008°27'0 0.0
2017-Dec-08 07:00N 55°27' E 008°27'0 0.6
2017-Dec-08 06:30N 55°27' E 008°26'1 2.2
2017-Dec-08 06:00N 55°28' E 008°25'3 6.6
2017-Dec-08 05:30N 55°28' E 008°19'510.6
2017-Dec-08 05:00N 55°24' E 008°12'4 8.7
2017-Dec-08 04:31N 55°22' E 008°06'5 9.5
2017-Dec-08 04:00N 55°19' E 007°59'510.6
2017-Dec-08 03:30N 55°16' E 007°52'612.0
2017-Dec-08 03:00N 55°12' E 007°43'612.1
2017-Dec-08 02:30N 55°08' E 007°35'612.2
2017-Dec-08 02:00N 55°05' E 007°26'612.1
2017-Dec-08 01:30N 55°01' E 007°18'612.1
2017-Dec-08 01:00N 54°57' E 007°10'612.2
2017-Dec-08 00:30N 54°54' E 007°01'712.3
2017-Dec-07 23:59N 54°50' E 006°52'612.3
2017-Dec-07 23:29N 54°47' E 006°43'10012.2
2017-Dec-07 15:21N 53°33' E 004°48'3213.9
2017-Dec-07 13:03N 53°04' E 004°25'114.5
2017-Dec-07 13:00N 53°04' E 004°24'714.0
2017-Dec-07 12:30N 52°58' E 004°19'713.9
2017-Dec-07 12:01N 52°51' E 004°15'714.3
2017-Dec-07 11:30N 52°45' E 004°09'714.3
2017-Dec-07 11:00N 52°39' E 004°03'714.3
2017-Dec-07 10:30N 52°32' E 003°58'611.5
2017-Dec-07 10:00N 52°27' E 003°54'714.1
2017-Dec-07 09:30N 52°20' E 003°52'714.1
2017-Dec-07 09:00N 52°13' E 003°53'714.4
2017-Dec-07 08:30N 52°06' E 003°54'4 8.2
2017-Dec-07 08:00N 52°02' E 003°56'815.4
2017-Dec-07 07:30N 51°58' E 004°07'713.4
2017-Dec-07 07:01N 51°54' E 004°16'5 9.9
2017-Dec-07 06:30N 51°54' E 004°24'2 3.3
2017-Dec-07 05:58N 51°54' E 004°27'0 0.0
2017-Dec-07 05:28N 51°54' E 004°27'0 0.7
2017-Dec-07 04:58N 51°54' E 004°27'0 0.0
2017-Dec-07 04:28N 51°54' E 004°27'0 0.0
2017-Dec-07 03:58N 51°54' E 004°27'0 0.0
2017-Dec-07 03:28N 51°54' E 004°27'0 0.0
2017-Dec-07 03:00N 51°54' E 004°27'0 0.0
2017-Dec-07 02:30N 51°54' E 004°27'0 0.0
2017-Dec-07 02:00N 51°54' E 004°27'0 0.0
2017-Dec-07 01:30N 51°54' E 004°27'0 0.0
2017-Dec-07 01:00N 51°54' E 004°27'0 0.0
2017-Dec-07 00:30N 51°54' E 004°27'0 0.0
2017-Dec-07 00:00N 51°54' E 004°27'0 0.0
2017-Dec-06 23:30N 51°54' E 004°27'0 0.0
2017-Dec-06 23:00N 51°54' E 004°27'0 0.0
2017-Dec-06 22:30N 51°54' E 004°27'0 0.0
2017-Dec-06 22:00N 51°54' E 004°27'0 0.0
2017-Dec-06 21:30N 51°54' E 004°27'0 0.0
2017-Dec-06 21:00N 51°54' E 004°27'  

Dump ship's entire track history